Time,TemperatureF,DewpointF,PressureIn,WindDirection,WindDirectionDegrees,WindSpeedMPH,WindSpeedGustMPH,Humidity,HourlyPrecipIn,Conditions,Clouds,dailyrainin,SoftwareType,DateUTC
2013-08-27 00:18:00,62.0,61.0,29.79,North,351,0.0,0.0,96,0.00,,,0.02,,2013-08-27 04:18:00,
2013-08-27 00:47:00,63.0,62.0,29.78,North,351,0.0,0.0,96,0.00,,,0.02,,2013-08-27 04:47:00,
2013-08-27 00:54:00,63.0,62.0,29.78,North,351,0.0,0.0,96,0.00,,,0.02,,2013-08-27 04:54:00,
2013-08-27 01:23:00,63.0,62.0,29.78,North,351,0.0,0.0,96,0.00,,,0.02,,2013-08-27 05:23:00,
2013-08-27 01:52:00,63.0,62.0,29.77,North,351,0.0,0.0,96,0.00,,,0.02,,2013-08-27 05:52:00,
2013-08-27 02:22:00,62.0,61.0,29.77,North,351,0.0,0.0,96,0.00,,,0.02,,2013-08-27 06:22:00,
2013-08-27 02:42:00,62.0,61.0,29.77,North,351,0.0,0.0,96,0.00,,,0.02,,2013-08-27 06:42:00,
2013-08-27 02:52:00,62.0,61.0,29.77,North,351,0.0,0.0,96,0.00,,,0.02,,2013-08-27 06:52:00,
2013-08-27 03:12:00,62.0,61.0,29.77,North,351,0.0,0.0,96,0.00,,,0.02,,2013-08-27 07:12:00,
2013-08-27 03:22:00,61.0,60.0,29.77,North,351,0.0,0.0,96,0.00,,,0.02,,2013-08-27 07:22:00,
2013-08-27 03:52:00,60.0,59.0,29.77,North,351,0.0,2.0,97,0.00,,,0.02,,2013-08-27 07:52:00,
2013-08-27 04:22:00,61.0,60.0,29.76,South,170,0.0,0.0,97,0.00,,,0.02,,2013-08-27 08:22:00,
2013-08-27 04:42:00,60.0,59.0,29.77,South,170,0.0,0.0,97,0.00,,,0.02,,2013-08-27 08:42:00,
2013-08-27 04:52:00,60.0,59.0,29.77,South,170,0.0,0.0,97,0.00,,,0.02,,2013-08-27 08:52:00,
2013-08-27 05:12:00,59.0,58.0,29.77,South,170,0.0,0.0,97,0.00,,,0.02,,2013-08-27 09:12:00,
2013-08-27 05:21:00,59.0,58.0,29.78,South,170,0.0,0.0,98,0.00,,,0.02,,2013-08-27 09:21:00,
2013-08-27 05:54:00,59.0,58.0,29.78,South,170,0.0,0.0,98,0.00,,,0.02,,2013-08-27 09:54:00,
2013-08-27 06:25:00,59.0,58.0,29.79,South,170,0.0,0.0,98,0.00,,,0.02,,2013-08-27 10:25:00,
2013-08-27 06:43:00,59.0,58.0,29.79,South,170,0.0,0.0,98,0.00,,,0.02,,2013-08-27 10:43:00,
2013-08-27 06:53:00,59.0,58.0,29.79,South,170,0.0,0.0,98,0.00,,,0.02,,2013-08-27 10:53:00,
2013-08-27 07:22:00,61.0,60.0,29.79,NNW,336,0.0,3.0,98,0.00,,,0.02,,2013-08-27 11:22:00,
2013-08-27 07:52:00,62.0,61.0,29.80,NNW,336,2.0,4.0,98,0.00,,,0.02,,2013-08-27 11:52:00,
2013-08-27 08:12:00,63.0,62.0,29.80,NNW,333,2.0,4.0,97,0.00,,,0.02,,2013-08-27 12:12:00,
2013-08-27 08:21:00,64.0,63.0,29.80,NNW,333,0.0,2.0,97,0.00,,,0.02,,2013-08-27 12:21:00,
2013-08-27 08:42:00,64.0,63.0,29.80,NNW,333,1.0,4.0,96,0.00,,,0.02,,2013-08-27 12:42:00,
2013-08-27 08:52:00,65.0,64.0,29.80,NNW,333,0.0,2.0,95,0.00,,,0.00,,2013-08-27 12:52:00,
2013-08-27 09:12:00,66.0,64.0,29.80,NE,49,2.0,5.0,94,0.00,,,0.00,,2013-08-27 13:12:00,
2013-08-27 09:22:00,66.0,64.0,29.80,NE,49,1.0,4.0,93,0.00,,,0.00,,2013-08-27 13:22:00,
2013-08-27 09:52:00,69.0,66.0,29.80,NE,49,0.0,1.0,91,0.00,,,0.00,,2013-08-27 13:52:00,
2013-08-27 10:22:00,72.0,67.0,29.80,NE,49,0.0,1.0,85,0.00,,,0.00,,2013-08-27 14:22:00,
2013-08-27 10:53:00,74.0,67.0,29.80,NE,47,0.0,2.0,78,0.00,,,0.00,,2013-08-27 14:53:00,
2013-08-27 11:11:00,74.0,68.0,29.80,NE,47,1.0,2.0,81,0.00,,,0.00,,2013-08-27 15:11:00,
2013-08-27 11:22:00,75.0,67.0,29.80,NE,47,1.0,2.0,76,0.00,,,0.00,,2013-08-27 15:22:00,
2013-08-27 11:45:00,75.0,67.0,29.80,NE,47,2.0,3.0,77,0.00,,,0.00,,2013-08-27 15:45:00,
2013-08-27 11:58:00,75.0,65.0,29.79,NE,43,2.0,4.0,72,0.00,,,0.00,,2013-08-27 15:58:00,
2013-08-27 12:17:00,76.0,66.0,29.80,NE,36,3.0,6.0,71,0.00,,,0.00,,2013-08-27 16:17:00,
2013-08-27 12:28:00,77.0,66.0,29.79,NE,44,2.0,4.0,69,0.00,,,0.00,,2013-08-27 16:28:00,
2013-08-27 12:55:00,78.0,68.0,29.80,NE,48,2.0,7.0,72,0.00,,,0.00,,2013-08-27 16:55:00,
2013-08-27 13:13:00,78.0,67.0,29.80,NE,55,3.0,5.0,70,0.00,,,0.00,,2013-08-27 17:13:00,
2013-08-27 13:23:00,77.0,66.0,29.79,NE,39,4.0,7.0,70,0.00,,,0.00,,2013-08-27 17:23:00,
2013-08-27 13:52:00,79.0,67.0,29.79,NW,325,1.0,4.0,66,0.00,,,0.00,,2013-08-27 17:52:00,
2013-08-27 14:12:00,78.0,66.0,29.78,NE,38,4.0,8.0,67,0.00,,,0.00,,2013-08-27 18:12:00,
2013-08-27 14:22:00,79.0,67.0,29.78,East,86,1.0,6.0,67,0.00,,,0.00,,2013-08-27 18:22:00,
2013-08-27 14:52:00,79.0,68.0,29.78,ENE,75,0.0,5.0,68,0.00,,,0.00,,2013-08-27 18:52:00,
2013-08-27 15:12:00,79.0,68.0,29.77,WNW,296,0.0,6.0,69,0.00,,,0.00,,2013-08-27 19:12:00,
2013-08-27 15:22:00,80.0,70.0,29.77,SW,217,1.0,6.0,71,0.00,,,0.00,,2013-08-27 19:22:00,
2013-08-27 15:52:00,79.0,68.0,29.77,SW,232,1.0,7.0,69,0.00,,,0.00,,2013-08-27 19:52:00,
2013-08-27 16:12:00,77.0,68.0,29.77,ENE,59,1.0,5.0,74,0.00,,,0.00,,2013-08-27 20:12:00,